sensor_id;sensor_type;location;lat;lon;timestamp;P1;durP1;ratioP1;P2;durP2;ratioP2
1436;SDS011;712;51.026;13.792;2023-05-09T00:01:57;5.30;;;2.33;;
1436;SDS011;712;51.026;13.792;2023-05-09T00:04:22;5.35;;;2.50;;
1436;SDS011;712;51.026;13.792;2023-05-09T00:06:48;5.63;;;2.90;;
1436;SDS011;712;51.026;13.792;2023-05-09T00:09:13;8.57;;;2.70;;
1436;SDS011;712;51.026;13.792;2023-05-09T00:11:38;6.57;;;2.55;;
1436;SDS011;712;51.026;13.792;2023-05-09T00:14:03;5.50;;;2.58;;
1436;SDS011;712;51.026;13.792;2023-05-09T00:16:28;7.80;;;2.90;;
1436;SDS011;712;51.026;13.792;2023-05-09T00:18:56;8.40;;;2.50;;
1436;SDS011;712;51.026;13.792;2023-05-09T00:21:21;7.28;;;2.70;;
1436;SDS011;712;51.026;13.792;2023-05-09T00:23:47;5.78;;;2.20;;
1436;SDS011;712;51.026;13.792;2023-05-09T00:26:12;5.40;;;2.40;;
1436;SDS011;712;51.026;13.792;2023-05-09T00:28:37;5.20;;;2.45;;
1436;SDS011;712;51.026;13.792;2023-05-09T00:31:02;6.13;;;2.45;;
1436;SDS011;712;51.026;13.792;2023-05-09T00:33:28;6.05;;;2.42;;
1436;SDS011;712;51.026;13.792;2023-05-09T00:35:53;9.75;;;2.90;;
1436;SDS011;712;51.026;13.792;2023-05-09T00:38:19;6.33;;;2.40;;
1436;SDS011;712;51.026;13.792;2023-05-09T00:40:44;7.50;;;2.60;;
1436;SDS011;712;51.026;13.792;2023-05-09T00:43:09;5.97;;;2.40;;
1436;SDS011;712;51.026;13.792;2023-05-09T00:45:34;5.55;;;2.42;;
1436;SDS011;712;51.026;13.792;2023-05-09T00:47:59;5.80;;;2.30;;
1436;SDS011;712;51.026;13.792;2023-05-09T00:50:25;10.33;;;2.40;;
1436;SDS011;712;51.026;13.792;2023-05-09T00:52:50;6.05;;;2.55;;
1436;SDS011;712;51.026;13.792;2023-05-09T00:55:15;5.37;;;2.37;;
1436;SDS011;712;51.026;13.792;2023-05-09T00:57:41;5.40;;;2.53;;
1436;SDS011;712;51.026;13.792;2023-05-09T01:00:06;5.57;;;2.60;;
1436;SDS011;712;51.026;13.792;2023-05-09T01:02:36;5.35;;;2.50;;
1436;SDS011;712;51.026;13.792;2023-05-09T01:05:01;6.20;;;2.28;;
1436;SDS011;712;51.026;13.792;2023-05-09T01:07:29;6.43;;;2.40;;
1436;SDS011;712;51.026;13.792;2023-05-09T01:15:07;6.82;;;2.55;;
1436;SDS011;712;51.026;13.792;2023-05-09T01:17:48;7.97;;;2.70;;
1436;SDS011;712;51.026;13.792;2023-05-09T01:23:11;6.57;;;2.72;;
1436;SDS011;712;51.026;13.792;2023-05-09T01:25:54;7.05;;;2.78;;
1436;SDS011;712;51.026;13.792;2023-05-09T01:28:33;6.90;;;2.63;;
1436;SDS011;712;51.026;13.792;2023-05-09T01:30:58;6.55;;;2.55;;
1436;SDS011;712;51.026;13.792;2023-05-09T01:33:23;6.57;;;2.43;;
1436;SDS011;712;51.026;13.792;2023-05-09T01:38:17;7.85;;;2.38;;
1436;SDS011;712;51.026;13.792;2023-05-09T01:40:44;5.75;;;2.72;;
1436;SDS011;712;51.026;13.792;2023-05-09T01:43:11;5.78;;;2.60;;
1436;SDS011;712;51.026;13.792;2023-05-09T01:45:37;5.68;;;2.25;;
1436;SDS011;712;51.026;13.792;2023-05-09T01:48:03;6.45;;;2.80;;
1436;SDS011;712;51.026;13.792;2023-05-09T01:50:28;6.82;;;2.63;;
1436;SDS011;712;51.026;13.792;2023-05-09T01:52:54;6.22;;;2.53;;
1436;SDS011;712;51.026;13.792;2023-05-09T01:55:20;7.70;;;2.60;;
1436;SDS011;712;51.026;13.792;2023-05-09T01:57:45;6.17;;;2.60;;
1436;SDS011;712;51.026;13.792;2023-05-09T02:00:11;6.55;;;2.65;;
1436;SDS011;712;51.026;13.792;2023-05-09T02:02:38;6.03;;;2.25;;
1436;SDS011;712;51.026;13.792;2023-05-09T02:05:04;6.78;;;2.60;;
1436;SDS011;712;51.026;13.792;2023-05-09T02:07:29;6.90;;;2.72;;
1436;SDS011;712;51.026;13.792;2023-05-09T02:09:55;6.67;;;2.50;;
1436;SDS011;712;51.026;13.792;2023-05-09T02:12:22;6.35;;;2.83;;
1436;SDS011;712;51.026;13.792;2023-05-09T02:14:47;7.10;;;2.58;;
1436;SDS011;712;51.026;13.792;2023-05-09T02:17:12;8.67;;;2.53;;
1436;SDS011;712;51.026;13.792;2023-05-09T02:19:41;6.50;;;2.85;;
1436;SDS011;712;51.026;13.792;2023-05-09T02:22:06;6.88;;;2.75;;
1436;SDS011;712;51.026;13.792;2023-05-09T02:24:32;6.23;;;2.30;;
1436;SDS011;712;51.026;13.792;2023-05-09T02:26:58;7.13;;;2.50;;
1436;SDS011;712;51.026;13.792;2023-05-09T02:29:24;6.65;;;2.75;;
1436;SDS011;712;51.026;13.792;2023-05-09T02:31:54;6.68;;;2.42;;
1436;SDS011;712;51.026;13.792;2023-05-09T02:34:19;9.20;;;2.47;;
1436;SDS011;712;51.026;13.792;2023-05-09T02:36:45;8.43;;;2.70;;
1436;SDS011;712;51.026;13.792;2023-05-09T02:39:10;7.30;;;2.40;;
1436;SDS011;712;51.026;13.792;2023-05-09T02:41:35;6.72;;;2.78;;
1436;SDS011;712;51.026;13.792;2023-05-09T02:44:00;6.30;;;2.63;;
1436;SDS011;712;51.026;13.792;2023-05-09T02:46:26;6.72;;;2.58;;
1436;SDS011;712;51.026;13.792;2023-05-09T02:48:51;5.53;;;2.40;;
1436;SDS011;712;51.026;13.792;2023-05-09T02:51:16;7.55;;;2.90;;
1436;SDS011;712;51.026;13.792;2023-05-09T02:53:41;4.97;;;2.25;;
1436;SDS011;712;51.026;13.792;2023-05-09T02:56:07;5.93;;;2.45;;
1436;SDS011;712;51.026;13.792;2023-05-09T02:58:33;6.53;;;2.83;;
1436;SDS011;712;51.026;13.792;2023-05-09T03:00:58;6.63;;;2.17;;
1436;SDS011;712;51.026;13.792;2023-05-09T03:03:23;6.57;;;2.60;;
1436;SDS011;712;51.026;13.792;2023-05-09T03:05:49;6.23;;;2.57;;
1436;SDS011;712;51.026;13.792;2023-05-09T03:08:14;5.67;;;2.10;;
1436;SDS011;712;51.026;13.792;2023-05-09T03:10:39;9.90;;;3.30;;
1436;SDS011;712;51.026;13.792;2023-05-09T03:13:05;5.47;;;2.47;;
1436;SDS011;712;51.026;13.792;2023-05-09T03:15:30;6.93;;;2.63;;
1436;SDS011;712;51.026;13.792;2023-05-09T03:17:55;6.25;;;2.50;;
1436;SDS011;712;51.026;13.792;2023-05-09T03:20:20;5.77;;;2.23;;
1436;SDS011;712;51.026;13.792;2023-05-09T03:22:46;6.00;;;2.40;;
1436;SDS011;712;51.026;13.792;2023-05-09T03:25:12;5.65;;;2.38;;
1436;SDS011;712;51.026;13.792;2023-05-09T03:27:37;6.57;;;2.60;;
1436;SDS011;712;51.026;13.792;2023-05-09T03:30:02;6.40;;;2.70;;
1436;SDS011;712;51.026;13.792;2023-05-09T03:32:27;6.33;;;2.43;;
1436;SDS011;712;51.026;13.792;2023-05-09T03:34:53;11.93;;;2.43;;
1436;SDS011;712;51.026;13.792;2023-05-09T03:37:18;5.80;;;2.38;;
1436;SDS011;712;51.026;13.792;2023-05-09T03:39:43;6.87;;;2.63;;
1436;SDS011;712;51.026;13.792;2023-05-09T03:42:09;6.13;;;2.53;;
1436;SDS011;712;51.026;13.792;2023-05-09T03:44:34;6.05;;;2.40;;
1436;SDS011;712;51.026;13.792;2023-05-09T03:46:59;7.13;;;2.33;;
1436;SDS011;712;51.026;13.792;2023-05-09T03:49:24;6.17;;;2.40;;
1436;SDS011;712;51.026;13.792;2023-05-09T03:51:49;7.97;;;2.75;;
1436;SDS011;712;51.026;13.792;2023-05-09T03:54:15;6.13;;;2.67;;
1436;SDS011;712;51.026;13.792;2023-05-09T03:56:40;8.57;;;2.87;;
1436;SDS011;712;51.026;13.792;2023-05-09T03:59:05;7.30;;;2.42;;
1436;SDS011;712;51.026;13.792;2023-05-09T04:01:30;5.90;;;2.20;;
1436;SDS011;712;51.026;13.792;2023-05-09T04:03:55;7.13;;;2.57;;
1436;SDS011;712;51.026;13.792;2023-05-09T04:06:23;6.95;;;2.85;;
1436;SDS011;712;51.026;13.792;2023-05-09T04:08:49;8.23;;;3.10;;
1436;SDS011;712;51.026;13.792;2023-05-09T04:11:14;7.63;;;2.57;;
1436;SDS011;712;51.026;13.792;2023-05-09T04:13:39;7.05;;;2.58;;
1436;SDS011;712;51.026;13.792;2023-05-09T04:16:04;5.93;;;2.70;;
1436;SDS011;712;51.026;13.792;2023-05-09T04:18:30;5.77;;;2.20;;
1436;SDS011;712;51.026;13.792;2023-05-09T04:20:55;5.67;;;2.10;;
1436;SDS011;712;51.026;13.792;2023-05-09T04:23:20;6.03;;;2.30;;
1436;SDS011;712;51.026;13.792;2023-05-09T04:25:45;8.13;;;2.47;;
1436;SDS011;712;51.026;13.792;2023-05-09T04:28:10;6.63;;;2.63;;
1436;SDS011;712;51.026;13.792;2023-05-09T04:30:35;8.30;;;2.50;;
1436;SDS011;712;51.026;13.792;2023-05-09T04:33:01;5.93;;;2.38;;
1436;SDS011;712;51.026;13.792;2023-05-09T04:35:26;5.37;;;2.20;;
1436;SDS011;712;51.026;13.792;2023-05-09T04:37:51;7.10;;;2.63;;
1436;SDS011;712;51.026;13.792;2023-05-09T04:40:17;5.20;;;2.40;;
1436;SDS011;712;51.026;13.792;2023-05-09T04:42:42;6.45;;;2.28;;
1436;SDS011;712;51.026;13.792;2023-05-09T04:45:07;5.80;;;2.27;;
1436;SDS011;712;51.026;13.792;2023-05-09T04:47:33;5.53;;;2.15;;
1436;SDS011;712;51.026;13.792;2023-05-09T04:49:58;5.00;;;2.08;;
1436;SDS011;712;51.026;13.792;2023-05-09T04:52:23;7.63;;;2.37;;
1436;SDS011;712;51.026;13.792;2023-05-09T04:54:48;6.47;;;2.37;;
1436;SDS011;712;51.026;13.792;2023-05-09T04:57:13;7.38;;;2.40;;
1436;SDS011;712;51.026;13.792;2023-05-09T04:59:39;6.47;;;2.38;;
1436;SDS011;712;51.026;13.792;2023-05-09T05:02:04;7.40;;;2.60;;
1436;SDS011;712;51.026;13.792;2023-05-09T05:04:29;5.70;;;2.30;;
1436;SDS011;712;51.026;13.792;2023-05-09T05:06:55;5.72;;;2.20;;
1436;SDS011;712;51.026;13.792;2023-05-09T05:09:20;6.10;;;2.20;;
1436;SDS011;712;51.026;13.792;2023-05-09T05:11:46;5.18;;;2.25;;
1436;SDS011;712;51.026;13.792;2023-05-09T05:14:11;6.07;;;2.20;;
1436;SDS011;712;51.026;13.792;2023-05-09T05:16:36;8.23;;;2.10;;
1436;SDS011;712;51.026;13.792;2023-05-09T05:19:01;7.15;;;2.10;;
1436;SDS011;712;51.026;13.792;2023-05-09T05:21:26;5.40;;;2.05;;
1436;SDS011;712;51.026;13.792;2023-05-09T05:23:51;6.00;;;2.10;;
1436;SDS011;712;51.026;13.792;2023-05-09T05:26:17;5.63;;;2.33;;
1436;SDS011;712;51.026;13.792;2023-05-09T05:28:42;5.65;;;2.05;;
1436;SDS011;712;51.026;13.792;2023-05-09T05:31:07;5.47;;;2.40;;
1436;SDS011;712;51.026;13.792;2023-05-09T05:33:32;6.90;;;2.23;;
1436;SDS011;712;51.026;13.792;2023-05-09T05:35:57;6.10;;;2.10;;
1436;SDS011;712;51.026;13.792;2023-05-09T05:38:22;5.57;;;2.22;;
1436;SDS011;712;51.026;13.792;2023-05-09T05:40:48;6.80;;;2.30;;
1436;SDS011;712;51.026;13.792;2023-05-09T05:43:13;6.05;;;2.45;;
1436;SDS011;712;51.026;13.792;2023-05-09T05:45:38;6.05;;;2.20;;
1436;SDS011;712;51.026;13.792;2023-05-09T05:48:03;6.60;;;2.20;;
1436;SDS011;712;51.026;13.792;2023-05-09T05:50:28;5.82;;;2.20;;
1436;SDS011;712;51.026;13.792;2023-05-09T05:52:53;8.95;;;2.38;;
1436;SDS011;712;51.026;13.792;2023-05-09T05:55:19;4.97;;;2.20;;
1436;SDS011;712;51.026;13.792;2023-05-09T05:57:44;5.75;;;2.35;;
1436;SDS011;712;51.026;13.792;2023-05-09T06:00:11;4.85;;;2.10;;
1436;SDS011;712;51.026;13.792;2023-05-09T06:02:40;4.57;;;2.08;;
1436;SDS011;712;51.026;13.792;2023-05-09T06:05:05;5.50;;;1.92;;
1436;SDS011;712;51.026;13.792;2023-05-09T06:07:31;6.82;;;2.30;;
1436;SDS011;712;51.026;13.792;2023-05-09T06:09:56;6.75;;;2.33;;
1436;SDS011;712;51.026;13.792;2023-05-09T06:12:21;5.78;;;2.20;;
1436;SDS011;712;51.026;13.792;2023-05-09T06:14:46;4.77;;;1.93;;
1436;SDS011;712;51.026;13.792;2023-05-09T06:17:11;6.40;;;1.95;;
1436;SDS011;712;51.026;13.792;2023-05-09T06:19:36;5.72;;;2.33;;
1436;SDS011;712;51.026;13.792;2023-05-09T06:22:02;10.47;;;2.40;;
1436;SDS011;712;51.026;13.792;2023-05-09T06:24:27;5.72;;;2.20;;
1436;SDS011;712;51.026;13.792;2023-05-09T06:26:52;6.43;;;2.20;;
1436;SDS011;712;51.026;13.792;2023-05-09T06:29:18;7.10;;;2.22;;
1436;SDS011;712;51.026;13.792;2023-05-09T06:31:43;5.57;;;2.00;;
1436;SDS011;712;51.026;13.792;2023-05-09T06:34:08;5.72;;;2.00;;
1436;SDS011;712;51.026;13.792;2023-05-09T06:36:33;7.53;;;2.30;;
1436;SDS011;712;51.026;13.792;2023-05-09T06:38:59;6.43;;;2.10;;
1436;SDS011;712;51.026;13.792;2023-05-09T06:41:24;6.13;;;2.17;;
1436;SDS011;712;51.026;13.792;2023-05-09T06:43:50;5.50;;;2.08;;
1436;SDS011;712;51.026;13.792;2023-05-09T06:46:15;6.80;;;2.30;;
1436;SDS011;712;51.026;13.792;2023-05-09T06:48:40;6.30;;;2.53;;
1436;SDS011;712;51.026;13.792;2023-05-09T06:51:05;6.33;;;1.93;;
1436;SDS011;712;51.026;13.792;2023-05-09T06:53:30;6.05;;;2.28;;
1436;SDS011;712;51.026;13.792;2023-05-09T06:55:55;5.03;;;2.17;;
1436;SDS011;712;51.026;13.792;2023-05-09T06:58:21;5.73;;;2.10;;
1436;SDS011;712;51.026;13.792;2023-05-09T07:00:46;5.35;;;2.17;;
1436;SDS011;712;51.026;13.792;2023-05-09T07:03:12;5.90;;;2.55;;
1436;SDS011;712;51.026;13.792;2023-05-09T07:05:37;6.40;;;2.30;;
1436;SDS011;712;51.026;13.792;2023-05-09T07:08:02;5.53;;;2.10;;
1436;SDS011;712;51.026;13.792;2023-05-09T07:10:28;6.00;;;2.40;;
1436;SDS011;712;51.026;13.792;2023-05-09T07:12:53;6.73;;;2.40;;
1436;SDS011;712;51.026;13.792;2023-05-09T07:15:18;6.07;;;2.63;;
1436;SDS011;712;51.026;13.792;2023-05-09T07:17:43;4.55;;;2.08;;
1436;SDS011;712;51.026;13.792;2023-05-09T07:20:08;6.30;;;2.40;;
1436;SDS011;712;51.026;13.792;2023-05-09T07:22:33;6.87;;;2.20;;
1436;SDS011;712;51.026;13.792;2023-05-09T07:24:59;7.38;;;2.20;;
1436;SDS011;712;51.026;13.792;2023-05-09T07:27:24;6.55;;;2.45;;
1436;SDS011;712;51.026;13.792;2023-05-09T07:29:49;6.82;;;2.53;;
1436;SDS011;712;51.026;13.792;2023-05-09T07:32:16;6.72;;;3.20;;
1436;SDS011;712;51.026;13.792;2023-05-09T07:34:41;7.20;;;2.90;;
1436;SDS011;712;51.026;13.792;2023-05-09T07:37:06;5.30;;;2.67;;
1436;SDS011;712;51.026;13.792;2023-05-09T07:39:31;6.07;;;2.50;;
1436;SDS011;712;51.026;13.792;2023-05-09T07:41:56;6.45;;;2.50;;
1436;SDS011;712;51.026;13.792;2023-05-09T07:44:22;6.57;;;2.15;;
1436;SDS011;712;51.026;13.792;2023-05-09T07:46:47;5.10;;;2.30;;
1436;SDS011;712;51.026;13.792;2023-05-09T07:49:12;6.83;;;2.20;;
1436;SDS011;712;51.026;13.792;2023-05-09T07:51:37;6.95;;;2.10;;
1436;SDS011;712;51.026;13.792;2023-05-09T07:54:02;5.75;;;2.10;;
1436;SDS011;712;51.026;13.792;2023-05-09T07:56:28;6.95;;;2.50;;
1436;SDS011;712;51.026;13.792;2023-05-09T07:58:53;6.50;;;2.08;;
1436;SDS011;712;51.026;13.792;2023-05-09T08:01:18;6.57;;;2.30;;
1436;SDS011;712;51.026;13.792;2023-05-09T08:03:43;5.43;;;2.30;;
1436;SDS011;712;51.026;13.792;2023-05-09T08:06:08;5.80;;;2.20;;
1436;SDS011;712;51.026;13.792;2023-05-09T08:08:33;7.27;;;2.30;;
1436;SDS011;712;51.026;13.792;2023-05-09T08:10:58;7.13;;;2.40;;
1436;SDS011;712;51.026;13.792;2023-05-09T08:13:24;5.85;;;2.20;;
1436;SDS011;712;51.026;13.792;2023-05-09T08:15:49;6.23;;;2.20;;
1436;SDS011;712;51.026;13.792;2023-05-09T08:18:14;5.20;;;2.13;;
1436;SDS011;712;51.026;13.792;2023-05-09T08:20:39;5.72;;;2.00;;
1436;SDS011;712;51.026;13.792;2023-05-09T08:23:05;6.43;;;2.00;;
1436;SDS011;712;51.026;13.792;2023-05-09T08:25:30;5.83;;;2.10;;
1436;SDS011;712;51.026;13.792;2023-05-09T08:27:55;5.93;;;2.07;;
1436;SDS011;712;51.026;13.792;2023-05-09T08:30:20;10.30;;;2.10;;
1436;SDS011;712;51.026;13.792;2023-05-09T08:32:45;5.27;;;2.00;;
1436;SDS011;712;51.026;13.792;2023-05-09T08:35:10;5.10;;;1.80;;
1436;SDS011;712;51.026;13.792;2023-05-09T08:37:36;6.55;;;1.90;;
1436;SDS011;712;51.026;13.792;2023-05-09T08:40:02;5.57;;;1.80;;
1436;SDS011;712;51.026;13.792;2023-05-09T08:42:28;5.40;;;2.20;;
1436;SDS011;712;51.026;13.792;2023-05-09T08:44:53;6.43;;;2.08;;
1436;SDS011;712;51.026;13.792;2023-05-09T08:47:18;6.22;;;2.38;;
1436;SDS011;712;51.026;13.792;2023-05-09T08:49:45;8.55;;;2.13;;
1436;SDS011;712;51.026;13.792;2023-05-09T08:52:10;5.37;;;1.90;;
1436;SDS011;712;51.026;13.792;2023-05-09T08:54:35;5.32;;;2.00;;
1436;SDS011;712;51.026;13.792;2023-05-09T08:57:01;8.13;;;1.90;;
1436;SDS011;712;51.026;13.792;2023-05-09T08:59:26;7.32;;;1.90;;
1436;SDS011;712;51.026;13.792;2023-05-09T09:01:52;5.82;;;1.80;;
1436;SDS011;712;51.026;13.792;2023-05-09T09:04:17;5.13;;;1.92;;
1436;SDS011;712;51.026;13.792;2023-05-09T09:06:42;5.43;;;2.00;;
1436;SDS011;712;51.026;13.792;2023-05-09T09:09:07;4.80;;;1.73;;
1436;SDS011;712;51.026;13.792;2023-05-09T09:11:33;6.00;;;1.90;;
1436;SDS011;712;51.026;13.792;2023-05-09T09:14:05;5.95;;;2.45;;
1436;SDS011;712;51.026;13.792;2023-05-09T09:18:56;7.05;;;2.10;;
1436;SDS011;712;51.026;13.792;2023-05-09T09:21:21;7.47;;;2.20;;
1436;SDS011;712;51.026;13.792;2023-05-09T09:23:47;5.40;;;2.00;;
1436;SDS011;712;51.026;13.792;2023-05-09T09:26:13;4.95;;;1.90;;
1436;SDS011;712;51.026;13.792;2023-05-09T09:28:38;4.30;;;1.90;;
1436;SDS011;712;51.026;13.792;2023-05-09T09:33:43;6.15;;;2.20;;
1436;SDS011;712;51.026;13.792;2023-05-09T09:36:09;6.10;;;2.22;;
1436;SDS011;712;51.026;13.792;2023-05-09T09:38:38;4.73;;;2.13;;
1436;SDS011;712;51.026;13.792;2023-05-09T09:41:04;5.93;;;2.03;;
1436;SDS011;712;51.026;13.792;2023-05-09T09:43:29;4.47;;;1.90;;
1436;SDS011;712;51.026;13.792;2023-05-09T09:45:55;5.28;;;1.88;;
1436;SDS011;712;51.026;13.792;2023-05-09T09:48:24;6.85;;;2.15;;
1436;SDS011;712;51.026;13.792;2023-05-09T09:50:50;7.03;;;2.00;;
1436;SDS011;712;51.026;13.792;2023-05-09T09:53:18;5.35;;;2.00;;
1436;SDS011;712;51.026;13.792;2023-05-09T09:58:15;4.80;;;1.70;;
1436;SDS011;712;51.026;13.792;2023-05-09T10:00:41;5.03;;;2.08;;
1436;SDS011;712;51.026;13.792;2023-05-09T10:03:06;5.60;;;1.87;;
1436;SDS011;712;51.026;13.792;2023-05-09T10:05:37;6.32;;;1.90;;
1436;SDS011;712;51.026;13.792;2023-05-09T10:08:04;5.47;;;1.80;;
1436;SDS011;712;51.026;13.792;2023-05-09T10:10:33;4.55;;;1.90;;
1436;SDS011;712;51.026;13.792;2023-05-09T10:13:00;5.55;;;1.90;;
1436;SDS011;712;51.026;13.792;2023-05-09T10:15:26;6.88;;;1.90;;
1436;SDS011;712;51.026;13.792;2023-05-09T10:17:55;6.18;;;2.00;;
1436;SDS011;712;51.026;13.792;2023-05-09T10:20:21;5.90;;;1.90;;
1436;SDS011;712;51.026;13.792;2023-05-09T10:22:46;5.55;;;1.80;;
1436;SDS011;712;51.026;13.792;2023-05-09T10:25:19;4.78;;;1.92;;
1436;SDS011;712;51.026;13.792;2023-05-09T10:27:45;5.82;;;1.85;;
1436;SDS011;712;51.026;13.792;2023-05-09T10:32:44;4.67;;;1.70;;
1436;SDS011;712;51.026;13.792;2023-05-09T10:35:11;4.53;;;1.73;;
1436;SDS011;712;51.026;13.792;2023-05-09T10:37:37;6.28;;;1.85;;
1436;SDS011;712;51.026;13.792;2023-05-09T10:40:03;5.47;;;1.60;;
1436;SDS011;712;51.026;13.792;2023-05-09T10:42:29;6.07;;;1.90;;
1436;SDS011;712;51.026;13.792;2023-05-09T10:44:54;7.05;;;1.92;;
1436;SDS011;712;51.026;13.792;2023-05-09T10:47:20;6.70;;;1.65;;
1436;SDS011;712;51.026;13.792;2023-05-09T10:49:45;5.88;;;1.80;;
1436;SDS011;712;51.026;13.792;2023-05-09T10:52:11;6.05;;;1.90;;
1436;SDS011;712;51.026;13.792;2023-05-09T10:54:36;6.13;;;1.80;;
1436;SDS011;712;51.026;13.792;2023-05-09T10:57:02;5.30;;;2.08;;
1436;SDS011;712;51.026;13.792;2023-05-09T10:59:40;6.10;;;2.00;;
1436;SDS011;712;51.026;13.792;2023-05-09T11:02:10;6.80;;;1.83;;
1436;SDS011;712;51.026;13.792;2023-05-09T11:04:36;4.82;;;1.90;;
1436;SDS011;712;51.026;13.792;2023-05-09T11:07:02;5.43;;;1.85;;
1436;SDS011;712;51.026;13.792;2023-05-09T11:12:09;5.13;;;1.70;;
1436;SDS011;712;51.026;13.792;2023-05-09T11:14:39;6.32;;;1.80;;
1436;SDS011;712;51.026;13.792;2023-05-09T11:17:09;5.93;;;1.80;;
1436;SDS011;712;51.026;13.792;2023-05-09T11:19:35;5.60;;;1.80;;
1436;SDS011;712;51.026;13.792;2023-05-09T11:22:01;4.10;;;1.55;;
1436;SDS011;712;51.026;13.792;2023-05-09T11:24:30;5.22;;;1.60;;
1436;SDS011;712;51.026;13.792;2023-05-09T11:26:56;5.07;;;2.08;;
1436;SDS011;712;51.026;13.792;2023-05-09T11:29:25;4.38;;;1.70;;
1436;SDS011;712;51.026;13.792;2023-05-09T11:32:06;4.82;;;1.95;;
1436;SDS011;712;51.026;13.792;2023-05-09T11:34:33;8.35;;;1.77;;
1436;SDS011;712;51.026;13.792;2023-05-09T11:37:08;4.43;;;1.53;;
1436;SDS011;712;51.026;13.792;2023-05-09T11:39:35;4.68;;;1.73;;
1436;SDS011;712;51.026;13.792;2023-05-09T11:42:00;5.43;;;1.60;;
1436;SDS011;712;51.026;13.792;2023-05-09T11:44:25;4.20;;;1.70;;
1436;SDS011;712;51.026;13.792;2023-05-09T11:46:51;5.47;;;1.70;;
1436;SDS011;712;51.026;13.792;2023-05-09T11:49:17;4.43;;;1.65;;
1436;SDS011;712;51.026;13.792;2023-05-09T11:51:43;4.80;;;1.60;;
1436;SDS011;712;51.026;13.792;2023-05-09T11:54:08;4.57;;;1.60;;
1436;SDS011;712;51.026;13.792;2023-05-09T11:56:36;3.72;;;1.50;;
1436;SDS011;712;51.026;13.792;2023-05-09T11:59:01;3.95;;;1.67;;
1436;SDS011;712;51.026;13.792;2023-05-09T12:01:28;6.28;;;1.70;;
1436;SDS011;712;51.026;13.792;2023-05-09T12:03:53;5.13;;;1.60;;
1436;SDS011;712;51.026;13.792;2023-05-09T12:06:18;4.40;;;1.90;;
1436;SDS011;712;51.026;13.792;2023-05-09T12:08:44;6.53;;;1.57;;
1436;SDS011;712;51.026;13.792;2023-05-09T12:11:09;5.07;;;1.60;;
1436;SDS011;712;51.026;13.792;2023-05-09T12:13:35;5.28;;;1.63;;
1436;SDS011;712;51.026;13.792;2023-05-09T12:16:00;5.30;;;1.70;;
1436;SDS011;712;51.026;13.792;2023-05-09T12:18:26;5.38;;;1.60;;
1436;SDS011;712;51.026;13.792;2023-05-09T12:20:51;5.53;;;1.60;;
1436;SDS011;712;51.026;13.792;2023-05-09T12:23:17;4.57;;;1.88;;
1436;SDS011;712;51.026;13.792;2023-05-09T12:25:52;4.82;;;1.88;;
1436;SDS011;712;51.026;13.792;2023-05-09T12:28:18;4.72;;;1.70;;
1436;SDS011;712;51.026;13.792;2023-05-09T12:33:09;4.93;;;1.50;;
1436;SDS011;712;51.026;13.792;2023-05-09T12:35:36;6.07;;;1.70;;
1436;SDS011;712;51.026;13.792;2023-05-09T12:38:02;5.53;;;1.75;;
1436;SDS011;712;51.026;13.792;2023-05-09T12:40:27;8.07;;;1.50;;
1436;SDS011;712;51.026;13.792;2023-05-09T12:42:52;4.97;;;1.70;;
1436;SDS011;712;51.026;13.792;2023-05-09T12:45:21;5.43;;;1.75;;
1436;SDS011;712;51.026;13.792;2023-05-09T12:47:49;5.40;;;1.70;;
1436;SDS011;712;51.026;13.792;2023-05-09T12:50:15;3.95;;;1.55;;
1436;SDS011;712;51.026;13.792;2023-05-09T12:52:40;9.27;;;1.85;;
1436;SDS011;712;51.026;13.792;2023-05-09T12:55:11;5.65;;;1.90;;
1436;SDS011;712;51.026;13.792;2023-05-09T12:57:37;5.45;;;1.80;;
1436;SDS011;712;51.026;13.792;2023-05-09T13:00:03;4.70;;;1.77;;
1436;SDS011;712;51.026;13.792;2023-05-09T13:02:35;5.65;;;1.70;;
1436;SDS011;712;51.026;13.792;2023-05-09T13:05:08;3.60;;;1.70;;
1436;SDS011;712;51.026;13.792;2023-05-09T13:07:38;4.85;;;1.83;;
1436;SDS011;712;51.026;13.792;2023-05-09T13:10:08;4.78;;;1.63;;
1436;SDS011;712;51.026;13.792;2023-05-09T13:12:33;5.72;;;1.85;;
1436;SDS011;712;51.026;13.792;2023-05-09T13:14:58;6.77;;;1.83;;
1436;SDS011;712;51.026;13.792;2023-05-09T13:17:23;4.75;;;1.77;;
1436;SDS011;712;51.026;13.792;2023-05-09T13:19:49;3.72;;;1.58;;
1436;SDS011;712;51.026;13.792;2023-05-09T13:22:14;4.43;;;1.67;;
1436;SDS011;712;51.026;13.792;2023-05-09T13:24:41;12.48;;;2.17;;
1436;SDS011;712;51.026;13.792;2023-05-09T13:27:06;6.40;;;1.80;;
1436;SDS011;712;51.026;13.792;2023-05-09T13:29:31;5.37;;;1.70;;
1436;SDS011;712;51.026;13.792;2023-05-09T13:31:56;3.50;;;1.63;;
1436;SDS011;712;51.026;13.792;2023-05-09T13:34:22;3.83;;;1.65;;
1436;SDS011;712;51.026;13.792;2023-05-09T13:36:47;4.97;;;1.88;;
1436;SDS011;712;51.026;13.792;2023-05-09T13:39:12;4.75;;;1.90;;
1436;SDS011;712;51.026;13.792;2023-05-09T13:41:37;5.10;;;1.73;;
1436;SDS011;712;51.026;13.792;2023-05-09T13:44:03;6.67;;;1.97;;
1436;SDS011;712;51.026;13.792;2023-05-09T13:46:28;6.43;;;2.00;;
1436;SDS011;712;51.026;13.792;2023-05-09T13:48:53;5.30;;;1.60;;
1436;SDS011;712;51.026;13.792;2023-05-09T13:51:19;4.15;;;1.83;;
1436;SDS011;712;51.026;13.792;2023-05-09T13:53:45;8.02;;;2.20;;
1436;SDS011;712;51.026;13.792;2023-05-09T13:56:10;5.37;;;2.07;;
1436;SDS011;712;51.026;13.792;2023-05-09T13:58:36;5.67;;;1.80;;
1436;SDS011;712;51.026;13.792;2023-05-09T14:01:01;4.83;;;2.10;;
1436;SDS011;712;51.026;13.792;2023-05-09T14:03:26;4.95;;;1.92;;
1436;SDS011;712;51.026;13.792;2023-05-09T14:05:51;4.70;;;1.90;;
1436;SDS011;712;51.026;13.792;2023-05-09T14:08:17;5.33;;;1.97;;
1436;SDS011;712;51.026;13.792;2023-05-09T14:10:42;5.20;;;2.00;;
1436;SDS011;712;51.026;13.792;2023-05-09T14:13:08;4.80;;;2.00;;
1436;SDS011;712;51.026;13.792;2023-05-09T14:17:59;4.82;;;2.00;;
1436;SDS011;712;51.026;13.792;2023-05-09T14:20:25;4.43;;;1.95;;
1436;SDS011;712;51.026;13.792;2023-05-09T14:22:50;5.80;;;2.20;;
1436;SDS011;712;51.026;13.792;2023-05-09T14:25:15;5.70;;;1.97;;
1436;SDS011;712;51.026;13.792;2023-05-09T14:27:41;4.70;;;2.00;;
1436;SDS011;712;51.026;13.792;2023-05-09T14:30:06;4.27;;;2.00;;
1436;SDS011;712;51.026;13.792;2023-05-09T14:34:57;7.53;;;2.20;;
1436;SDS011;712;51.026;13.792;2023-05-09T14:37:22;5.27;;;1.90;;
1436;SDS011;712;51.026;13.792;2023-05-09T14:39:47;4.82;;;2.03;;
1436;SDS011;712;51.026;13.792;2023-05-09T14:42:13;6.40;;;2.15;;
1436;SDS011;712;51.026;13.792;2023-05-09T14:44:40;4.65;;;1.90;;
1436;SDS011;712;51.026;13.792;2023-05-09T14:47:06;6.27;;;2.00;;
1436;SDS011;712;51.026;13.792;2023-05-09T14:49:31;7.00;;;2.25;;
1436;SDS011;712;51.026;13.792;2023-05-09T14:51:56;5.03;;;2.00;;
1436;SDS011;712;51.026;13.792;2023-05-09T14:54:21;5.63;;;2.28;;
1436;SDS011;712;51.026;13.792;2023-05-09T14:56:48;5.32;;;2.15;;
1436;SDS011;712;51.026;13.792;2023-05-09T14:59:13;4.57;;;1.90;;
1436;SDS011;712;51.026;13.792;2023-05-09T15:01:38;7.47;;;2.20;;
1436;SDS011;712;51.026;13.792;2023-05-09T15:04:03;4.97;;;2.10;;
1436;SDS011;712;51.026;13.792;2023-05-09T15:06:28;4.47;;;2.00;;
1436;SDS011;712;51.026;13.792;2023-05-09T15:08:54;5.25;;;2.05;;
1436;SDS011;712;51.026;13.792;2023-05-09T15:11:19;5.90;;;2.23;;
1436;SDS011;712;51.026;13.792;2023-05-09T15:13:45;6.30;;;1.90;;
1436;SDS011;712;51.026;13.792;2023-05-09T15:16:11;4.38;;;2.03;;
1436;SDS011;712;51.026;13.792;2023-05-09T15:18:36;4.45;;;2.10;;
1436;SDS011;712;51.026;13.792;2023-05-09T15:21:01;5.27;;;2.10;;
1436;SDS011;712;51.026;13.792;2023-05-09T15:23:26;4.50;;;2.03;;
1436;SDS011;712;51.026;13.792;2023-05-09T15:25:51;5.60;;;2.00;;
1436;SDS011;712;51.026;13.792;2023-05-09T15:28:16;6.15;;;2.30;;
1436;SDS011;712;51.026;13.792;2023-05-09T15:30:42;6.47;;;2.47;;
1436;SDS011;712;51.026;13.792;2023-05-09T15:33:09;4.22;;;2.10;;
1436;SDS011;712;51.026;13.792;2023-05-09T15:35:34;4.90;;;1.80;;
1436;SDS011;712;51.026;13.792;2023-05-09T15:37:59;6.73;;;2.20;;